»·PEaware :: N286WF KDAG-KIGM

N286WF :: KDAG-KIGM

FLIGHT INFORMATION

Flight Status: Arrived
Operator: Privately registered:
United States
More flights under this callsign
Pilot: Frank W. (16848)
Aircraft: Unknown
(P28U)
More flights by this aircraft type
Origin: KDAG Barstow-Daggett
United States
Destination: KIGM Kingman
United States
More flights between these airports :: More routes between these airports
Route: KDAG HEC GFS JESPI KIGM
File this flight plan on PilotEdge
Remarks: No Advisories
Altitude:
(Current/Filed)
10,500ft
Speed:
(Current/Filed)
140kts
Departed: 01-Nov-19 08:54 AM
Arrived: 01-Nov-19 10:17 AM
Distance/Time
Traveled:
142nm/1:23
Distance/Time
To Go:
Arrived

Flight Plot

Page will automatically refresh every two minutes.


Map Options




Map Legend


Flown Route
Filed Route
Departure Airport
Arrival Airport
Navaid (VOR, NDB)
Fix

Horizontal Profiles

Position Reports

Time Latitude Longitude Heading Altitude Ground
Speed
01-Nov-19 08:25 34.855757 -116.791099 143 1920ft 0kts
01-Nov-19 08:26 34.855757 -116.791099 143 1920ft 0kts
01-Nov-19 08:27 34.855757 -116.791099 143 1920ft 0kts
01-Nov-19 08:28 34.855757 -116.791099 143 1920ft 0kts
01-Nov-19 08:29 34.855757 -116.791099 143 1920ft 0kts
01-Nov-19 08:30 34.855757 -116.791099 143 1920ft 0kts
01-Nov-19 08:31 34.855757 -116.791099 143 1920ft 0kts
01-Nov-19 08:32 34.855757 -116.791099 143 1920ft 0kts
01-Nov-19 08:33 34.855757 -116.791099 143 1920ft 0kts
01-Nov-19 08:34 34.855757 -116.791099 143 1920ft 0kts
01-Nov-19 08:35 34.855757 -116.791099 143 1920ft 0kts
01-Nov-19 08:36 34.855757 -116.791099 143 1920ft 0kts
01-Nov-19 08:37 34.855757 -116.791099 143 1920ft 0kts
01-Nov-19 08:38 34.855757 -116.791099 143 1920ft 0kts
01-Nov-19 08:39 34.855757 -116.791099 143 1920ft 0kts
01-Nov-19 08:40 34.855757 -116.791099 143 1920ft 0kts
01-Nov-19 08:41 34.855757 -116.791099 143 1920ft 0kts
01-Nov-19 08:42 34.855757 -116.791099 143 1920ft 0kts
01-Nov-19 08:43 34.855757 -116.791099 143 1920ft 0kts
01-Nov-19 08:44 34.855757 -116.791099 143 1920ft 0kts
01-Nov-19 08:45 34.855757 -116.791099 143 1920ft 0kts
01-Nov-19 08:46 34.855757 -116.791099 143 1920ft 0kts
01-Nov-19 08:47 34.855757 -116.791099 143 1920ft 0kts
01-Nov-19 08:48 34.855757 -116.791099 143 1920ft 0kts
01-Nov-19 08:49 34.854873 -116.790958 169 1921ft 0kts
01-Nov-19 08:50 34.852753 -116.793600 227 1924ft 0kts
01-Nov-19 08:51 34.852060 -116.793670 134 1925ft 7kts
01-Nov-19 08:52 34.852422 -116.791982 52 1922ft 28kts
01-Nov-19 08:53 34.866332 -116.770530 54 2354ft 88kts
01-Nov-19 08:54 34.879927 -116.744796 69 2858ft 96kts
01-Nov-19 08:55 34.872494 -116.715288 96 3379ft 93kts
01-Nov-19 08:56 34.887772 -116.694040 41 3898ft 87kts
01-Nov-19 08:57 34.883054 -116.666932 108 4455ft 86kts
01-Nov-19 08:58 34.894276 -116.644322 57 4892ft 88kts
01-Nov-19 08:59 34.888987 -116.616510 84 5038ft 104kts
01-Nov-19 09:00 34.888987 -116.616510 84 5038ft 104kts
01-Nov-19 09:01 34.878686 -116.590165 136 5350ft 94kts
01-Nov-19 09:02 34.861296 -116.567208 127 5646ft 92kts
01-Nov-19 09:03 34.845873 -116.542809 124 5916ft 92kts
01-Nov-19 09:04 34.830749 -116.517290 123 6182ft 92kts
01-Nov-19 09:05 34.811518 -116.502153 195 6387ft 87kts
01-Nov-19 09:06 34.800143 -116.479712 99 6628ft 95kts
01-Nov-19 09:07 34.803078 -116.447398 70 6869ft 100kts
01-Nov-19 09:08 34.811349 -116.416075 64 7467ft 94kts
01-Nov-19 09:09 34.819326 -116.386374 71 8479ft 92kts
01-Nov-19 09:10 34.827122 -116.358906 63 9482ft 80kts
01-Nov-19 09:11 34.833593 -116.331938 67 10296ft 88kts
01-Nov-19 09:12 34.841374 -116.297592 74 10550ft 126kts
01-Nov-19 09:13 34.852073 -116.255182 72 10543ft 130kts
01-Nov-19 09:14 34.862905 -116.211647 73 10554ft 139kts
01-Nov-19 09:15 34.874605 -116.166496 72 10564ft 140kts
01-Nov-19 09:16 34.886460 -116.121098 72 10565ft 140kts
01-Nov-19 09:17 34.898353 -116.075598 72 10559ft 140kts
01-Nov-19 09:18 34.910210 -116.030198 71 10554ft 140kts
01-Nov-19 09:19 34.922076 -115.984692 71 10548ft 141kts
01-Nov-19 09:21 34.933918 -115.939211 70 10542ft 141kts
01-Nov-19 09:22 34.945822 -115.893402 70 10539ft 141kts
01-Nov-19 09:23 34.957752 -115.847398 70 10541ft 142kts
01-Nov-19 09:24 34.969605 -115.801595 70 10544ft 142kts
01-Nov-19 09:25 34.981563 -115.755307 69 10550ft 143kts
01-Nov-19 09:26 34.993494 -115.709037 69 10558ft 143kts
01-Nov-19 09:27 35.005535 -115.662251 69 10562ft 144kts
01-Nov-19 09:28 35.017650 -115.615119 69 10544ft 146kts
01-Nov-19 09:29 35.029860 -115.567537 69 10526ft 147kts
01-Nov-19 09:30 35.041854 -115.520713 69 10508ft 148kts
01-Nov-19 09:31 35.053665 -115.474507 69 10494ft 149kts
01-Nov-19 09:32 35.066046 -115.425990 69 10483ft 149kts
01-Nov-19 09:33 35.078408 -115.377461 69 10485ft 149kts
01-Nov-19 09:34 35.090741 -115.328963 70 10484ft 149kts
01-Nov-19 09:35 35.102781 -115.281533 70 10483ft 149kts
01-Nov-19 09:36 35.115035 -115.233157 70 10480ft 149kts
01-Nov-19 09:37 35.127276 -115.184738 70 10476ft 148kts
01-Nov-19 09:38 35.131597 -115.134115 82 10476ft 150kts
01-Nov-19 09:39 35.134179 -115.083293 84 10476ft 150kts
01-Nov-19 09:39 35.135957 -115.040611 84 10476ft 150kts
01-Nov-19 09:41 35.138356 -114.982151 84 10476ft 150kts
01-Nov-19 09:42 35.140439 -114.930848 84 10476ft 151kts
01-Nov-19 09:42 35.142152 -114.888218 84 10476ft 151kts
01-Nov-19 09:44 35.144539 -114.828203 84 10476ft 151kts
01-Nov-19 09:44 35.146219 -114.785512 84 10476ft 151kts
01-Nov-19 09:45 35.148213 -114.734340 84 10476ft 151kts
01-Nov-19 09:47 35.150523 -114.674334 84 10476ft 151kts
01-Nov-19 09:47 35.152108 -114.632709 84 10476ft 151kts
01-Nov-19 09:48 35.154041 -114.581442 84 10476ft 151kts
01-Nov-19 09:49 35.155984 -114.530044 84 10476ft 151kts
01-Nov-19 09:50 35.157960 -114.479804 83 10476ft 151kts
01-Nov-19 09:51 35.160059 -114.428502 83 10480ft 150kts
01-Nov-19 09:52 35.166165 -114.378489 69 10485ft 148kts
01-Nov-19 09:53 35.176925 -114.329491 72 10490ft 148kts
01-Nov-19 09:54 35.186910 -114.281742 72 10496ft 147kts
01-Nov-19 09:55 35.197059 -114.233075 72 10502ft 147kts
01-Nov-19 09:56 35.207148 -114.184578 72 10503ft 146kts
01-Nov-19 09:57 35.216859 -114.137793 72 10503ft 146kts
01-Nov-19 09:58 35.226869 -114.089469 72 10503ft 146kts
01-Nov-19 09:59 35.236900 -114.040933 72 10503ft 146kts
01-Nov-19 10:00 35.246853 -113.992669 72 10503ft 146kts
01-Nov-19 10:01 35.256833 -113.944176 72 10503ft 146kts
01-Nov-19 10:02 35.266419 -113.897750 72 10522ft 148kts
01-Nov-19 10:03 35.275933 -113.850023 73 10253ft 126kts
01-Nov-19 10:04 35.269072 -113.845320 1 7528ft 116kts
01-Nov-19 10:05 35.274548 -113.818761 157 5871ft 111kts
01-Nov-19 10:06 35.268189 -113.842650 322 4766ft 100kts
01-Nov-19 10:07 35.283049 -113.830984 140 4617ft 106kts
01-Nov-19 10:08 35.270169 -113.856694 278 4786ft 117kts
01-Nov-19 10:09 35.273878 -113.895344 268 4845ft 110kts
01-Nov-19 10:10 35.269773 -113.926091 224 3741ft 74kts
01-Nov-19 10:11 35.255380 -113.943522 221 4076ft 76kts
01-Nov-19 10:12 35.237447 -113.926887 77 4722ft 119kts
01-Nov-19 10:13 35.264656 -113.916500 356 4687ft 129kts
01-Nov-19 10:14 35.292333 -113.923385 239 4575ft 127kts
01-Nov-19 10:15 35.271688 -113.936329 172 3494ft 67kts
01-Nov-19 10:16 35.262432 -113.937623 276 3389ft 15kts
01-Nov-19 10:17 35.262537 -113.938393 264 3389ft 0kts

Navigation Log

Ident Type
Flight plan parsing failed, navigation log unavailable